createdAt,value
2022-10-06T00:01:32.756Z,14.65
2022-10-06T00:03:59.401Z,9.48
2022-10-06T00:06:25.987Z,10.07
2022-10-06T00:08:52.641Z,13.45
2022-10-06T00:11:19.251Z,8.90
2022-10-06T00:13:45.894Z,11.90
2022-10-06T00:16:14.627Z,12.43
2022-10-06T00:18:41.287Z,12.80
2022-10-06T00:21:07.864Z,11.73
2022-10-06T00:23:34.659Z,11.05
2022-10-06T00:26:01.250Z,12.82
2022-10-06T00:28:28.408Z,9.23
2022-10-06T00:30:55.456Z,11.02
2022-10-06T00:33:22.203Z,8.65
2022-10-06T00:35:49.067Z,15.93
2022-10-06T00:38:16.474Z,9.13
2022-10-06T00:40:48.630Z,15.65
2022-10-06T00:43:36.835Z,12.43
2022-10-06T00:46:03.472Z,12.40
2022-10-06T00:48:30.447Z,13.23
2022-10-06T00:50:57.643Z,20.27
2022-10-06T00:53:26.032Z,15.95
2022-10-06T00:55:52.612Z,10.98
2022-10-06T00:58:19.209Z,10.52
2022-10-06T01:14:12.967Z,10.98
2022-10-06T01:16:40.901Z,16.58
2022-10-06T01:19:10.515Z,13.23
2022-10-06T01:24:11.435Z,17.17
2022-10-06T01:26:40.891Z,13.15
2022-10-06T01:29:07.505Z,10.18
2022-10-06T01:31:34.233Z,12.52
2022-10-06T01:34:00.939Z,12.88
2022-10-06T01:36:27.657Z,12.50
2022-10-06T01:38:54.281Z,8.95
2022-10-06T01:41:20.930Z,15.45
2022-10-06T01:43:47.569Z,12.70
2022-10-06T01:46:14.262Z,14.82
2022-10-06T01:48:40.917Z,14.57
2022-10-06T01:51:07.551Z,11.63
2022-10-06T01:53:34.215Z,14.00
2022-10-06T01:56:01.183Z,17.33
2022-10-06T01:58:28.023Z,11.25
2022-10-06T02:00:54.939Z,14.43
2022-10-06T02:03:21.684Z,13.90
2022-10-06T02:05:48.291Z,11.10
2022-10-06T02:08:16.154Z,10.38
2022-10-06T02:10:42.841Z,14.07
2022-10-06T02:13:09.451Z,14.85
2022-10-06T02:15:36.096Z,14.75
2022-10-06T02:18:02.830Z,13.75
2022-10-06T02:20:29.589Z,14.70
2022-10-06T02:22:56.209Z,17.17
2022-10-06T02:25:22.942Z,15.80
2022-10-06T02:27:49.544Z,17.65
2022-10-06T02:30:16.345Z,11.43
2022-10-06T02:32:43.166Z,16.58
2022-10-06T02:35:10.126Z,10.90
2022-10-06T02:37:36.785Z,11.15
2022-10-06T02:40:03.826Z,14.98
2022-10-06T02:42:30.690Z,12.60
2022-10-06T02:44:57.319Z,17.17
2022-10-06T02:47:23.958Z,16.98
2022-10-06T02:49:50.602Z,15.98
2022-10-06T02:52:17.271Z,12.23
2022-10-06T02:54:43.887Z,14.65
2022-10-06T02:57:10.587Z,15.10
2022-10-06T02:59:37.249Z,12.98
2022-10-06T03:02:03.995Z,15.45
2022-10-06T03:04:30.904Z,11.82
2022-10-06T03:06:57.589Z,18.58
2022-10-06T03:09:24.514Z,11.10
2022-10-06T03:11:51.180Z,17.27
2022-10-06T03:14:21.669Z,15.52
2022-10-06T03:16:48.830Z,11.98
2022-10-06T03:19:15.456Z,15.80
2022-10-06T03:21:42.603Z,17.10
2022-10-06T03:24:09.677Z,14.60
2022-10-06T03:26:41.100Z,16.40
2022-10-06T03:29:11.317Z,10.50
2022-10-06T03:31:38.852Z,16.67
2022-10-06T03:34:05.735Z,15.50
2022-10-06T03:36:33.110Z,13.55
2022-10-06T03:39:00.028Z,18.48
2022-10-06T03:41:28.034Z,12.85
2022-10-06T03:43:56.061Z,15.50
2022-10-06T03:46:24.028Z,10.93
2022-10-06T03:48:51.327Z,18.70
2022-10-06T03:51:24.240Z,13.80
2022-10-06T03:53:51.900Z,11.23
2022-10-06T03:56:31.956Z,17.25
2022-10-06T03:58:59.971Z,17.92
2022-10-06T04:01:31.303Z,14.00
2022-10-06T04:03:58.682Z,19.45
2022-10-06T04:06:26.106Z,18.67
2022-10-06T04:08:52.829Z,12.73
2022-10-06T04:11:24.063Z,16.63
2022-10-06T04:14:03.941Z,16.20
2022-10-06T04:16:31.933Z,18.02
2022-10-06T04:19:00.531Z,9.95
2022-10-06T04:21:27.623Z,20.33
2022-10-06T04:23:55.045Z,19.60
2022-10-06T04:26:22.473Z,14.85
2022-10-06T04:28:50.363Z,14.60
2022-10-06T04:31:21.753Z,18.65
2022-10-06T04:33:51.112Z,16.58
2022-10-06T04:36:23.736Z,15.80
2022-10-06T04:38:57.831Z,15.93
2022-10-06T04:41:31.999Z,18.20
2022-10-06T04:43:58.907Z,14.77
2022-10-06T04:49:18.955Z,18.88
2022-10-06T04:51:46.334Z,17.48
2022-10-06T04:54:13.031Z,22.30
2022-10-06T04:56:39.683Z,16.38
2022-10-06T04:59:06.324Z,20.50
2022-10-06T05:04:01.530Z,17.15
2022-10-06T05:06:30.181Z,16.33
2022-10-06T05:08:58.492Z,16.70
2022-10-06T05:11:26.145Z,18.42
2022-10-06T05:13:54.545Z,15.05
2022-10-06T05:16:21.558Z,16.00
2022-10-06T05:18:48.323Z,20.08
2022-10-06T05:21:16.523Z,18.20
2022-10-06T05:23:43.565Z,17.10
2022-10-06T05:26:14.746Z,18.98
2022-10-06T05:28:41.602Z,19.13
2022-10-06T05:31:19.106Z,21.08
2022-10-06T05:33:45.870Z,19.52
2022-10-06T05:36:16.949Z,18.33
2022-10-06T05:38:44.127Z,19.83
2022-10-06T05:41:17.929Z,22.27
2022-10-06T05:43:44.794Z,16.80
2022-10-06T05:46:16.314Z,24.63
2022-10-06T05:48:45.534Z,18.65
2022-10-06T05:51:12.194Z,17.45
2022-10-06T05:53:41.568Z,23.60
2022-10-06T05:56:26.288Z,17.33
2022-10-06T05:58:56.947Z,21.65
2022-10-06T06:01:41.246Z,16.67
2022-10-06T06:04:09.959Z,16.25
2022-10-06T06:06:43.135Z,19.30
2022-10-06T06:09:20.159Z,17.13
2022-10-06T06:11:48.340Z,29.30
2022-10-06T06:14:19.162Z,16.70
2022-10-06T06:16:46.088Z,11.48
2022-10-06T06:19:13.427Z,37.08
2022-10-06T06:21:40.141Z,23.10
2022-10-06T06:24:06.900Z,19.98
2022-10-06T06:26:37.055Z,19.13
2022-10-06T06:29:03.966Z,19.23
2022-10-06T06:31:31.785Z,23.02
2022-10-06T06:34:00.823Z,15.25
2022-10-06T06:36:37.607Z,16.95
2022-10-06T06:39:06.531Z,11.43
2022-10-06T06:41:37.229Z,22.08
2022-10-06T06:44:04.570Z,14.68
2022-10-06T06:46:31.695Z,20.45
2022-10-06T06:48:59.605Z,21.17
2022-10-06T06:51:26.517Z,16.33
2022-10-06T06:53:55.501Z,16.48
2022-10-06T06:56:25.017Z,15.35
2022-10-06T06:58:51.644Z,21.50
2022-10-06T07:01:19.301Z,16.75
2022-10-06T07:03:58.959Z,15.23
2022-10-06T07:06:28.143Z,16.00
2022-10-06T07:08:55.844Z,13.50
2022-10-06T07:11:41.660Z,12.00
2022-10-06T07:14:11.521Z,15.70
2022-10-06T07:16:38.289Z,16.05
2022-10-06T07:19:05.135Z,14.60
2022-10-06T07:21:31.754Z,21.95
2022-10-06T07:23:58.687Z,20.63
2022-10-06T07:26:26.135Z,14.57
2022-10-06T07:28:52.817Z,20.08
2022-10-06T07:31:19.606Z,14.82
2022-10-06T07:33:46.357Z,16.58
2022-10-06T07:36:12.943Z,17.40
2022-10-06T07:38:39.657Z,12.85
2022-10-06T07:41:18.961Z,17.98
2022-10-06T07:43:46.702Z,16.77
2022-10-06T07:46:13.514Z,15.90
2022-10-06T07:48:40.465Z,16.90
2022-10-06T07:51:17.770Z,20.67
2022-10-06T07:53:44.562Z,18.65
2022-10-06T07:56:12.123Z,13.40
2022-10-06T07:58:39.026Z,14.98
2022-10-06T08:01:07.102Z,15.77
2022-10-06T08:03:33.858Z,16.55
2022-10-06T08:06:01.785Z,16.52
2022-10-06T08:08:33.059Z,15.65
2022-10-06T08:11:01.566Z,14.82
2022-10-06T08:13:28.553Z,19.60
2022-10-06T08:15:58.545Z,13.07
2022-10-06T08:18:45.443Z,22.45
2022-10-06T08:21:22.613Z,14.73
2022-10-06T08:23:51.158Z,14.38
2022-10-06T08:26:18.920Z,13.45
2022-10-06T08:28:50.155Z,13.18
2022-10-06T08:31:18.377Z,16.55
2022-10-06T08:33:46.497Z,12.68
2022-10-06T08:36:20.117Z,14.15
2022-10-06T08:38:49.887Z,12.18
2022-10-06T08:41:21.819Z,15.75
2022-10-06T08:44:13.492Z,14.18
2022-10-06T08:46:42.709Z,9.32
2022-10-06T08:49:15.836Z,10.50
2022-10-06T08:51:51.530Z,13.43
2022-10-06T08:56:57.938Z,14.52
2022-10-06T08:59:24.834Z,10.40
2022-10-06T09:01:55.238Z,13.73
2022-10-06T09:04:27.652Z,9.90
2022-10-06T09:07:03.280Z,10.85
2022-10-06T09:09:55.191Z,18.60
2022-10-06T09:12:48.274Z,13.27
2022-10-06T09:15:15.197Z,14.85
2022-10-06T09:17:47.595Z,8.48
2022-10-06T09:20:18.227Z,9.40
2022-10-06T09:22:45.580Z,9.27
2022-10-06T09:25:17.364Z,9.20
2022-10-06T09:27:52.224Z,9.38
2022-10-06T09:30:19.503Z,11.95
2022-10-06T09:32:47.851Z,8.25
2022-10-06T09:35:23.254Z,10.18
2022-10-06T09:40:40.532Z,8.90
2022-10-06T09:43:20.511Z,8.75
2022-10-06T09:45:47.928Z,8.02
2022-10-06T09:48:25.370Z,13.68
2022-10-06T09:51:13.257Z,10.55
2022-10-06T09:56:17.629Z,7.35
2022-10-06T09:58:59.927Z,10.85
2022-10-06T10:01:27.772Z,10.77
2022-10-06T10:04:18.721Z,10.52
2022-10-06T10:06:43.696Z,10.77
2022-10-06T10:09:28.558Z,9.57
2022-10-06T10:12:10.263Z,9.73
2022-10-06T10:14:38.248Z,10.02
2022-10-06T10:17:39.271Z,11.52
2022-10-06T10:20:38.274Z,10.60
2022-10-06T10:23:31.710Z,9.02
2022-10-06T10:28:50.173Z,10.20
2022-10-06T10:31:35.281Z,8.32
2022-10-06T10:34:25.208Z,5.60
2022-10-06T10:37:04.178Z,8.07
2022-10-06T10:39:35.957Z,8.45
2022-10-06T10:42:04.499Z,10.75
2022-10-06T10:44:36.493Z,6.07
2022-10-06T10:47:16.727Z,6.40
2022-10-06T10:49:45.581Z,6.78
2022-10-06T10:52:23.122Z,9.18
2022-10-06T10:55:18.830Z,5.75
2022-10-06T10:57:45.677Z,9.05
2022-10-06T11:00:19.223Z,7.13
2022-10-06T11:02:46.292Z,9.48
2022-10-06T11:05:28.922Z,7.38
2022-10-06T11:08:03.980Z,6.95
2022-10-06T11:10:34.092Z,7.95
2022-10-06T11:13:23.180Z,8.80
2022-10-06T11:16:20.879Z,5.13
2022-10-06T11:18:59.646Z,4.45
2022-10-06T11:21:35.264Z,5.75
2022-10-06T11:24:22.428Z,8.35
2022-10-06T11:26:58.008Z,5.18
2022-10-06T11:29:46.366Z,5.22
2022-10-06T11:32:46.465Z,6.22
2022-10-06T11:35:26.311Z,8.05
2022-10-06T11:38:01.832Z,8.43
2022-10-06T11:41:00.837Z,7.57
2022-10-06T11:43:52.247Z,8.95
2022-10-06T11:46:41.347Z,5.00
2022-10-06T11:49:29.208Z,6.43
2022-10-06T11:51:59.586Z,7.93
2022-10-06T11:54:46.763Z,4.25
2022-10-06T11:57:25.125Z,6.40
2022-10-06T12:00:16.829Z,5.28
2022-10-06T12:02:46.820Z,5.28
2022-10-06T12:05:45.877Z,7.40
2022-10-06T12:08:09.115Z,7.85
2022-10-06T12:10:35.840Z,9.25
2022-10-06T12:14:41.117Z,7.28
2022-10-06T12:19:27.606Z,6.57
2022-10-06T12:21:54.491Z,7.32
2022-10-06T12:24:41.680Z,6.88
2022-10-06T12:27:49.038Z,5.85
2022-10-06T12:30:24.488Z,8.80
2022-10-06T12:32:54.866Z,6.93
2022-10-06T12:35:34.638Z,5.32
2022-10-06T12:38:05.207Z,5.60
2022-10-06T12:40:43.005Z,6.15
2022-10-06T12:43:15.689Z,4.93
2022-10-06T12:45:46.113Z,7.65
2022-10-06T12:48:22.260Z,8.57
2022-10-06T12:50:51.656Z,8.48
2022-10-06T12:53:28.106Z,7.30
2022-10-06T12:55:56.626Z,8.30
2022-10-06T12:58:30.599Z,6.60
2022-10-06T13:01:11.384Z,7.63
2022-10-06T13:03:38.479Z,7.47
2022-10-06T13:06:07.833Z,5.97
2022-10-06T13:08:36.061Z,6.32
2022-10-06T13:11:22.576Z,6.25
2022-10-06T13:13:50.836Z,7.68
2022-10-06T13:16:23.131Z,5.25
2022-10-06T13:18:53.565Z,5.93
2022-10-06T13:21:20.467Z,6.32
2022-10-06T13:23:50.171Z,5.18
2022-10-06T13:26:20.195Z,7.07
2022-10-06T13:28:51.550Z,9.27
2022-10-06T13:31:20.893Z,4.70
2022-10-06T13:33:52.784Z,5.25
2022-10-06T13:36:19.649Z,5.75
2022-10-06T13:38:47.229Z,8.32
2022-10-06T13:41:13.869Z,6.95
2022-10-06T13:43:43.455Z,5.68
2022-10-06T13:46:11.143Z,6.32
2022-10-06T13:48:56.093Z,7.75
2022-10-06T13:51:28.668Z,5.03
2022-10-06T13:54:16.554Z,5.07
2022-10-06T13:56:43.331Z,7.28
2022-10-06T13:59:27.663Z,7.75
2022-10-06T14:01:55.795Z,8.32
2022-10-06T14:04:22.847Z,6.93
2022-10-06T14:06:56.487Z,8.15
2022-10-06T14:09:26.425Z,6.45
2022-10-06T14:11:53.936Z,6.57
2022-10-06T14:14:21.424Z,5.53
2022-10-06T14:16:51.839Z,9.02
2022-10-06T14:19:35.874Z,5.07
2022-10-06T14:22:04.149Z,6.32
2022-10-06T14:24:31.024Z,7.90
2022-10-06T14:27:02.249Z,8.82
2022-10-06T14:29:30.927Z,7.40
2022-10-06T14:32:08.055Z,5.63
2022-10-06T14:34:34.680Z,6.63
2022-10-06T14:37:01.415Z,7.53
2022-10-06T14:39:28.079Z,8.70
2022-10-06T14:41:54.729Z,6.72
2022-10-06T14:44:21.493Z,9.23
2022-10-06T14:46:48.843Z,7.85
2022-10-06T14:49:15.899Z,12.45
2022-10-06T14:51:43.539Z,8.75
2022-10-06T14:54:10.321Z,8.10
2022-10-06T14:56:38.539Z,7.03
2022-10-06T14:59:07.422Z,7.70
2022-10-06T15:01:37.598Z,6.63
2022-10-06T15:04:10.548Z,5.65
2022-10-06T15:06:38.497Z,8.55
2022-10-06T15:09:05.750Z,6.30
2022-10-06T15:11:37.829Z,8.32
2022-10-06T15:14:05.813Z,7.13
2022-10-06T15:16:35.432Z,6.55
2022-10-06T15:19:02.314Z,8.00
2022-10-06T15:21:33.008Z,6.32
2022-10-06T15:24:03.884Z,8.32
2022-10-06T15:26:35.631Z,9.40
2022-10-06T15:29:02.937Z,10.43
2022-10-06T15:31:38.783Z,8.10
2022-10-06T15:36:43.451Z,10.30
2022-10-06T15:39:16.571Z,6.18
2022-10-06T15:41:45.054Z,8.85
2022-10-06T15:44:18.055Z,4.85
2022-10-06T15:46:48.406Z,6.07
2022-10-06T15:49:24.263Z,5.13
2022-10-06T15:51:59.680Z,3.75
2022-10-06T15:54:34.965Z,6.63
2022-10-06T15:57:06.488Z,4.82
2022-10-06T15:59:34.352Z,7.55
2022-10-06T16:02:07.587Z,5.07
2022-10-06T16:04:37.905Z,5.70
2022-10-06T16:07:09.105Z,7.57
2022-10-06T16:09:42.040Z,3.95
2022-10-06T16:12:12.184Z,6.53
2022-10-06T16:14:38.827Z,4.75
2022-10-06T16:17:06.398Z,5.63
2022-10-06T16:19:33.235Z,9.82
2022-10-06T16:22:00.527Z,7.15
2022-10-06T16:24:27.225Z,8.45
2022-10-06T16:26:54.063Z,7.93
2022-10-06T16:29:21.424Z,9.38
2022-10-06T16:31:48.248Z,6.43
2022-10-06T16:34:15.200Z,8.93
2022-10-06T16:36:42.155Z,8.27
2022-10-06T16:39:15.184Z,5.15
2022-10-06T16:41:42.035Z,9.00
2022-10-06T16:44:08.831Z,8.00
2022-10-06T16:46:35.726Z,5.90
2022-10-06T16:49:02.713Z,8.38
2022-10-06T16:51:30.909Z,7.78
2022-10-06T16:54:10.630Z,6.13
2022-10-06T16:56:45.175Z,5.88
2022-10-06T16:59:13.472Z,4.88
2022-10-06T17:01:40.179Z,5.40
2022-10-06T17:04:11.544Z,7.03
2022-10-06T17:06:45.812Z,13.68
2022-10-06T17:09:14.381Z,7.97
2022-10-06T17:11:44.083Z,7.40
2022-10-06T17:14:13.746Z,8.15
2022-10-06T17:16:41.657Z,11.27
2022-10-06T17:19:09.253Z,8.90
2022-10-06T17:21:57.388Z,9.30
2022-10-06T17:24:25.069Z,6.78
2022-10-06T17:26:51.896Z,9.38
2022-10-06T17:29:21.835Z,9.15
2022-10-06T17:31:50.166Z,7.20
2022-10-06T17:34:21.148Z,7.38
2022-10-06T17:36:50.020Z,10.93
2022-10-06T17:39:17.883Z,10.10
2022-10-06T17:41:45.006Z,6.50
2022-10-06T17:44:15.748Z,9.90
2022-10-06T17:46:43.199Z,8.35
2022-10-06T17:49:15.971Z,11.02
2022-10-06T17:51:46.411Z,9.55
2022-10-06T17:54:13.911Z,11.55
2022-10-06T17:56:43.681Z,11.75
2022-10-06T17:59:18.974Z,10.38
2022-10-06T18:01:45.782Z,9.88
2022-10-06T18:04:13.299Z,10.45
2022-10-06T18:06:42.442Z,9.13
2022-10-06T18:09:09.275Z,9.45
2022-10-06T18:11:36.187Z,10.95
2022-10-06T18:14:07.604Z,7.72
2022-10-06T18:16:36.601Z,13.52
2022-10-06T18:19:05.412Z,13.10
2022-10-06T18:21:32.272Z,10.30
2022-10-06T18:23:58.925Z,8.55
2022-10-06T18:26:25.740Z,10.55
2022-10-06T18:28:52.390Z,12.45
2022-10-06T18:31:19.382Z,9.05
2022-10-06T18:36:33.817Z,8.40
2022-10-06T18:39:02.355Z,8.13
2022-10-06T18:41:29.726Z,10.85
2022-10-06T18:43:57.179Z,10.38
2022-10-06T18:46:24.158Z,7.00
2022-10-06T18:48:51.059Z,11.32
2022-10-06T18:51:17.682Z,11.68
2022-10-06T18:53:44.788Z,7.72
2022-10-06T18:56:11.550Z,12.35
2022-10-06T18:58:38.990Z,16.17
2022-10-06T19:01:06.190Z,10.07
2022-10-06T19:03:33.200Z,13.15
2022-10-06T19:06:01.456Z,11.65
2022-10-06T19:08:34.585Z,13.48
2022-10-06T19:11:05.729Z,11.25
2022-10-06T19:13:32.353Z,14.57
2022-10-06T19:15:59.038Z,9.75
2022-10-06T19:18:33.649Z,12.93
2022-10-06T19:21:00.350Z,15.85
2022-10-06T19:23:31.865Z,12.35
2022-10-06T19:25:58.753Z,13.20
2022-10-06T19:28:28.748Z,11.02
2022-10-06T19:30:59.351Z,12.07
2022-10-06T19:33:26.279Z,11.65
2022-10-06T19:35:53.751Z,11.15
2022-10-06T19:38:21.344Z,12.68
2022-10-06T19:40:48.118Z,15.07
2022-10-06T19:43:14.765Z,9.35
2022-10-06T19:45:41.525Z,13.43
2022-10-06T19:48:08.209Z,13.23
2022-10-06T19:50:34.854Z,10.30
2022-10-06T19:53:01.467Z,9.75
2022-10-06T19:55:28.408Z,10.63
2022-10-06T19:57:55.210Z,9.73
2022-10-06T20:00:21.937Z,13.52
2022-10-06T20:02:48.710Z,10.50
2022-10-06T20:05:18.762Z,12.40
2022-10-06T20:07:48.187Z,9.98
2022-10-06T20:10:15.083Z,13.45
2022-10-06T20:12:41.834Z,11.63
2022-10-06T20:15:08.981Z,10.32
2022-10-06T20:17:35.649Z,15.00
2022-10-06T20:20:02.318Z,12.93
2022-10-06T20:22:28.921Z,14.23
2022-10-06T20:24:55.544Z,15.50
2022-10-06T20:27:22.350Z,12.90
2022-10-06T20:29:49.007Z,11.13
2022-10-06T20:32:15.608Z,11.77
2022-10-06T20:34:42.497Z,16.27
2022-10-06T20:37:09.218Z,13.98
2022-10-06T20:39:35.847Z,15.73
2022-10-06T20:42:02.625Z,17.23
2022-10-06T20:44:32.721Z,16.05
2022-10-06T20:46:59.385Z,29.13
2022-10-06T20:49:26.098Z,18.80
2022-10-06T20:52:01.782Z,14.68
2022-10-06T20:54:28.757Z,11.55
2022-10-06T20:56:55.585Z,14.65
2022-10-06T20:59:22.858Z,12.35
2022-10-06T21:01:49.641Z,11.98
2022-10-06T21:04:16.396Z,16.15
2022-10-06T21:06:53.271Z,13.88
2022-10-06T21:09:19.838Z,10.80
2022-10-06T21:11:46.908Z,10.55
2022-10-06T21:14:15.247Z,14.75
2022-10-06T21:16:43.275Z,11.32
2022-10-06T21:19:14.167Z,12.52
2022-10-06T21:21:41.439Z,14.68
2022-10-06T21:24:08.461Z,15.02
2022-10-06T21:26:35.230Z,10.52
2022-10-06T21:29:02.042Z,17.90
2022-10-06T21:31:28.922Z,12.60
2022-10-06T21:33:55.742Z,11.27
2022-10-06T21:36:24.046Z,13.88
2022-10-06T21:38:55.122Z,14.68
2022-10-06T21:41:26.060Z,16.73
2022-10-06T21:43:53.999Z,13.75
2022-10-06T21:46:28.375Z,12.70
2022-10-06T21:48:56.831Z,19.75
2022-10-06T21:51:26.195Z,16.90
